createdAt,value
2019-05-06T00:01:47.997Z,8.30
2019-05-06T00:04:18.443Z,8.30
2019-05-06T00:06:48.848Z,8.20
2019-05-06T00:09:19.457Z,8.20
2019-05-06T00:11:51.612Z,8.20
2019-05-06T00:14:23.524Z,8.20
2019-05-06T00:16:55.729Z,8.10
2019-05-06T00:19:26.579Z,8.20
2019-05-06T00:21:58.099Z,8.20
2019-05-06T00:24:34.790Z,8.20
2019-05-06T00:27:14.129Z,8.10
2019-05-06T00:29:46.915Z,8.10
2019-05-06T00:32:17.620Z,8.10
2019-05-06T00:34:48.303Z,8.00
2019-05-06T00:37:18.964Z,8.00
2019-05-06T00:39:57.776Z,8.00
2019-05-06T00:42:30.587Z,8.00
2019-05-06T00:45:01.120Z,8.00
2019-05-06T00:47:34.017Z,8.00
2019-05-06T00:50:05.781Z,8.00
2019-05-06T00:52:37.196Z,7.90
2019-05-06T00:55:07.876Z,8.00
2019-05-06T00:57:44.505Z,7.90
2019-05-06T01:00:24.243Z,8.00
2019-05-06T01:02:54.385Z,8.00
2019-05-06T01:05:25.142Z,8.00
2019-05-06T01:07:55.671Z,8.00
2019-05-06T01:10:27.123Z,8.00
2019-05-06T01:13:04.270Z,7.90
2019-05-06T01:15:35.184Z,7.80
2019-05-06T01:18:06.251Z,7.60
2019-05-06T01:20:37.008Z,7.50
2019-05-06T01:23:08.472Z,7.60
2019-05-06T01:25:39.042Z,7.70
2019-05-06T01:28:09.569Z,7.80
2019-05-06T01:30:40.120Z,7.90
2019-05-06T01:33:11.595Z,7.90
2019-05-06T01:35:44.220Z,7.90
2019-05-06T01:38:40.121Z,7.80
2019-05-06T01:41:19.749Z,7.70
2019-05-06T01:43:50.279Z,7.60
2019-05-06T01:46:20.839Z,7.50
2019-05-06T01:48:53.459Z,7.40
2019-05-06T01:51:24.273Z,7.30
2019-05-06T01:53:54.862Z,7.30
2019-05-06T01:56:25.460Z,7.30
2019-05-06T01:58:57.440Z,7.20
2019-05-06T02:01:28.088Z,7.20
2019-05-06T02:03:58.595Z,7.10
2019-05-06T02:06:29.116Z,7.10
2019-05-06T02:08:59.616Z,7.00
2019-05-06T02:11:30.106Z,6.90
2019-05-06T02:14:01.533Z,6.90
2019-05-06T02:16:34.095Z,6.90
2019-05-06T02:19:04.378Z,6.90
2019-05-06T02:21:55.300Z,6.80
2019-05-06T02:24:30.589Z,6.80
2019-05-06T02:27:01.253Z,6.70
2019-05-06T02:29:34.297Z,6.70
2019-05-06T02:32:38.955Z,6.70
2019-05-06T02:35:34.710Z,6.70
2019-05-06T02:38:25.817Z,6.80
2019-05-06T02:40:54.828Z,6.90
2019-05-06T02:43:25.316Z,6.90
2019-05-06T02:45:55.861Z,6.90
2019-05-06T02:48:37.100Z,7.00
2019-05-06T02:51:13.145Z,7.00
2019-05-06T02:53:43.927Z,7.00
2019-05-06T02:56:14.492Z,7.00
2019-05-06T02:58:45.067Z,7.00
2019-05-06T03:01:15.595Z,7.00
2019-05-06T03:03:46.153Z,7.00
2019-05-06T03:06:16.621Z,7.10
2019-05-06T03:08:47.152Z,7.10
2019-05-06T03:11:17.785Z,7.10
2019-05-06T03:13:48.260Z,7.10
2019-05-06T03:16:23.525Z,7.10
2019-05-06T03:18:53.405Z,7.10
2019-05-06T03:21:44.897Z,7.20
2019-05-06T03:24:37.559Z,7.20
2019-05-06T03:27:08.249Z,7.20
2019-05-06T03:29:38.764Z,7.20
2019-05-06T03:32:09.388Z,7.20
2019-05-06T03:35:01.132Z,7.20
2019-05-06T03:37:16.924Z,7.20
2019-05-06T03:39:44.391Z,7.10
2019-05-06T03:42:16.726Z,7.10
2019-05-06T03:44:53.189Z,7.20
2019-05-06T03:47:44.827Z,7.20
2019-05-06T03:50:16.520Z,7.20
2019-05-06T03:52:47.073Z,7.10
2019-05-06T03:55:17.585Z,7.20
2019-05-06T03:57:48.914Z,7.10
2019-05-06T04:00:19.470Z,7.10
2019-05-06T04:02:53.394Z,7.10
2019-05-06T04:05:23.858Z,7.10
2019-05-06T04:07:55.309Z,7.20
2019-05-06T04:10:25.791Z,7.20
2019-05-06T04:12:57.843Z,7.20
2019-05-06T04:15:53.791Z,7.20
2019-05-06T04:18:24.703Z,7.20
2019-05-06T04:21:03.747Z,7.20
2019-05-06T04:23:43.849Z,7.20
2019-05-06T04:26:26.702Z,7.20
2019-05-06T04:28:57.914Z,7.10
2019-05-06T04:31:28.525Z,7.10
2019-05-06T04:34:09.969Z,7.20
2019-05-06T04:36:33.635Z,7.20
2019-05-06T04:39:04.493Z,7.20
2019-05-06T04:41:36.361Z,7.20
2019-05-06T04:44:06.943Z,7.30
2019-05-06T04:46:38.262Z,7.30
2019-05-06T04:49:14.095Z,7.30
2019-05-06T04:51:43.202Z,7.30
2019-05-06T04:54:14.104Z,7.40
2019-05-06T04:56:44.893Z,7.40
2019-05-06T04:59:16.053Z,7.40
2019-05-06T05:01:46.498Z,7.50
2019-05-06T05:04:28.197Z,7.50
2019-05-06T05:06:49.388Z,7.50
2019-05-06T05:09:19.961Z,7.60
2019-05-06T05:12:06.836Z,7.60
2019-05-06T05:14:51.932Z,7.70
2019-05-06T05:17:48.987Z,7.70
2019-05-06T05:20:35.906Z,7.80
2019-05-06T05:22:52.869Z,7.80
2019-05-06T05:25:33.052Z,7.90
2019-05-06T05:28:03.675Z,7.90
2019-05-06T05:30:34.408Z,8.00
2019-05-06T05:33:05.149Z,8.00
2019-05-06T05:35:35.816Z,8.10
2019-05-06T05:38:06.991Z,8.10
2019-05-06T05:40:38.648Z,8.20
2019-05-06T05:43:27.420Z,8.30
2019-05-06T05:46:10.060Z,8.30
2019-05-06T05:49:09.416Z,8.40
2019-05-06T05:51:42.462Z,8.50
2019-05-06T05:54:12.562Z,8.50
2019-05-06T05:56:43.205Z,8.50
2019-05-06T05:59:14.897Z,8.60
2019-05-06T06:01:45.470Z,8.70
2019-05-06T06:04:16.974Z,8.70
2019-05-06T06:06:48.344Z,8.80
2019-05-06T06:09:22.280Z,8.90
2019-05-06T06:11:54.272Z,9.00
2019-05-06T06:14:47.499Z,9.10
2019-05-06T06:17:32.522Z,9.20
2019-05-06T06:20:22.351Z,9.30
2019-05-06T06:22:53.938Z,9.60
2019-05-06T06:25:25.756Z,9.60
2019-05-06T06:27:56.277Z,9.70
2019-05-06T06:30:43.807Z,9.80
2019-05-06T06:33:14.560Z,10.00
2019-05-06T06:36:04.291Z,10.70
2019-05-06T06:38:56.972Z,10.90
2019-05-06T06:41:27.646Z,10.90
2019-05-06T06:44:02.658Z,10.90
2019-05-06T06:46:33.348Z,10.90
2019-05-06T06:49:03.945Z,11.00
2019-05-06T06:51:34.570Z,10.90
2019-05-06T06:54:06.001Z,11.10
2019-05-06T06:57:05.557Z,11.80
2019-05-06T06:59:34.451Z,12.40
2019-05-06T07:02:28.093Z,12.80
2019-05-06T07:05:28.504Z,13.20
2019-05-06T07:08:02.195Z,13.70
2019-05-06T07:10:45.105Z,14.20
2019-05-06T07:13:18.289Z,14.30
2019-05-06T07:15:48.851Z,14.60
2019-05-06T07:18:19.680Z,14.80
2019-05-06T07:21:08.394Z,15.00
2019-05-06T07:23:39.129Z,15.40
2019-05-06T07:26:12.154Z,15.60
2019-05-06T07:28:43.704Z,15.80
2019-05-06T07:31:22.223Z,15.90
2019-05-06T07:33:47.408Z,16.10
2019-05-06T07:36:20.130Z,16.20
2019-05-06T07:38:52.362Z,16.50
2019-05-06T07:41:28.505Z,16.70
2019-05-06T07:44:33.200Z,16.80
2019-05-06T07:47:15.767Z,17.10
2019-05-06T07:49:47.520Z,17.30
2019-05-06T07:52:18.082Z,17.40
2019-05-06T07:54:48.754Z,17.60
2019-05-06T07:57:22.008Z,17.50
2019-05-06T07:59:52.838Z,17.60
2019-05-06T08:02:24.418Z,18.00
2019-05-06T08:04:54.919Z,18.20
2019-05-06T08:07:25.590Z,18.40
2019-05-06T08:10:01.941Z,18.50
2019-05-06T08:12:32.664Z,18.90
2019-05-06T08:15:05.232Z,19.20
2019-05-06T08:17:42.116Z,19.30
2019-05-06T08:20:13.191Z,18.80
2019-05-06T08:23:05.852Z,18.50
2019-05-06T08:25:45.648Z,18.80
2019-05-06T08:28:16.304Z,18.70
2019-05-06T08:30:46.990Z,18.60
2019-05-06T08:33:17.720Z,18.70
2019-05-06T08:35:48.408Z,18.40
2019-05-06T08:38:19.104Z,18.50
2019-05-06T08:40:49.719Z,18.20
2019-05-06T08:43:21.979Z,17.70
2019-05-06T08:45:53.464Z,17.60
2019-05-06T08:48:24.031Z,18.00
2019-05-06T08:51:02.779Z,18.50
2019-05-06T08:53:55.467Z,18.80
2019-05-06T08:56:26.053Z,18.70
2019-05-06T08:58:56.609Z,18.20
2019-05-06T09:01:53.406Z,18.20
2019-05-06T09:04:23.713Z,18.60
2019-05-06T09:06:55.001Z,19.00
2019-05-06T09:09:27.030Z,19.10
2019-05-06T09:11:57.632Z,19.30
2019-05-06T09:14:28.323Z,19.10
2019-05-06T09:16:58.952Z,19.00
2019-05-06T09:19:29.512Z,18.90
2019-05-06T09:22:02.358Z,18.30
2019-05-06T09:24:32.548Z,17.90
2019-05-06T09:27:12.139Z,17.70
2019-05-06T09:29:53.868Z,17.70
2019-05-06T09:32:28.803Z,17.80
2019-05-06T09:35:02.738Z,18.50
2019-05-06T09:37:32.866Z,18.80
2019-05-06T09:40:03.964Z,19.30
2019-05-06T09:42:35.699Z,19.90
2019-05-06T09:45:07.488Z,20.10
2019-05-06T09:48:03.600Z,20.20
2019-05-06T09:50:38.196Z,20.10
2019-05-06T09:53:13.182Z,19.70
2019-05-06T09:56:06.466Z,19.30
2019-05-06T09:58:42.776Z,19.90
2019-05-06T10:01:14.432Z,20.10
2019-05-06T10:03:45.064Z,19.80
2019-05-06T10:06:15.782Z,19.80
2019-05-06T10:08:46.325Z,20.50
2019-05-06T10:11:17.540Z,21.80
2019-05-06T10:13:48.226Z,21.50
2019-05-06T10:16:18.897Z,20.50
2019-05-06T10:18:49.488Z,20.30
2019-05-06T10:21:20.123Z,20.70
2019-05-06T10:23:52.730Z,20.70
2019-05-06T10:26:23.465Z,21.10
2019-05-06T10:29:02.322Z,21.40
2019-05-06T10:31:39.391Z,20.80
2019-05-06T10:34:14.011Z,20.20
2019-05-06T10:36:53.298Z,20.50
2019-05-06T10:39:27.424Z,20.10
2019-05-06T10:42:13.211Z,19.50
2019-05-06T10:45:27.237Z,19.40
2019-05-06T10:47:59.656Z,19.30
2019-05-06T10:50:33.724Z,19.10
2019-05-06T10:53:16.697Z,19.00
2019-05-06T10:56:02.136Z,18.80
2019-05-06T10:58:32.835Z,18.70
2019-05-06T11:01:17.273Z,19.10
2019-05-06T11:04:04.888Z,18.90
2019-05-06T11:06:36.448Z,19.00
2019-05-06T11:09:10.528Z,19.40
2019-05-06T11:11:42.818Z,19.10
2019-05-06T11:14:13.589Z,18.70
2019-05-06T11:16:44.247Z,18.10
2019-05-06T11:19:14.901Z,18.10
2019-05-06T11:21:45.468Z,18.00
2019-05-06T11:24:17.840Z,17.90
2019-05-06T11:26:48.387Z,18.30
2019-05-06T11:29:24.578Z,18.20
2019-05-06T11:32:07.032Z,18.10
2019-05-06T11:34:42.867Z,18.00
2019-05-06T11:37:50.163Z,17.90
2019-05-06T11:40:18.081Z,18.10
2019-05-06T11:42:48.652Z,18.30
2019-05-06T11:45:19.472Z,18.50
2019-05-06T11:47:50.056Z,19.10
2019-05-06T11:50:21.968Z,20.00
2019-05-06T11:52:55.818Z,20.60
2019-05-06T11:55:32.718Z,20.90
2019-05-06T11:58:22.384Z,20.80
2019-05-06T12:00:53.822Z,20.70
2019-05-06T12:03:25.208Z,20.50
2019-05-06T12:06:03.858Z,20.20
2019-05-06T12:08:35.759Z,20.00
2019-05-06T12:11:12.790Z,19.70
2019-05-06T12:13:45.070Z,19.40
2019-05-06T12:16:16.844Z,19.60
2019-05-06T12:18:47.457Z,19.70
2019-05-06T12:21:19.267Z,19.80
2019-05-06T12:23:50.240Z,19.70
2019-05-06T12:26:20.945Z,19.20
2019-05-06T12:28:53.497Z,18.90
2019-05-06T12:31:24.033Z,18.80
2019-05-06T12:33:54.518Z,18.70
2019-05-06T12:36:25.171Z,18.60
2019-05-06T12:39:15.694Z,18.40
2019-05-06T12:42:06.065Z,18.20
2019-05-06T12:44:38.056Z,17.90
2019-05-06T12:47:32.805Z,17.60
2019-05-06T12:50:03.036Z,17.50
2019-05-06T12:52:33.448Z,17.10
2019-05-06T12:55:17.069Z,16.90
2019-05-06T12:57:36.862Z,16.70
2019-05-06T13:00:07.865Z,16.50
2019-05-06T13:02:38.552Z,16.40
2019-05-06T13:05:09.230Z,16.20
2019-05-06T13:07:46.133Z,16.10
2019-05-06T13:10:19.723Z,15.90
2019-05-06T13:12:58.244Z,15.70
2019-05-06T13:15:28.937Z,15.70
2019-05-06T13:17:59.579Z,15.60
2019-05-06T13:20:34.982Z,15.10
2019-05-06T13:23:27.607Z,14.70
2019-05-06T13:25:58.140Z,14.30
2019-05-06T13:28:33.267Z,14.10
2019-05-06T13:31:15.739Z,14.20
2019-05-06T13:33:45.376Z,14.40
2019-05-06T13:36:16.002Z,14.30
2019-05-06T13:38:46.604Z,14.20
2019-05-06T13:41:17.126Z,14.30
2019-05-06T13:43:56.236Z,14.30
2019-05-06T13:46:29.515Z,14.20
2019-05-06T13:49:17.719Z,14.40
2019-05-06T13:51:55.260Z,14.60
2019-05-06T13:54:25.890Z,14.50
2019-05-06T13:56:56.478Z,14.50
2019-05-06T13:59:30.152Z,14.60
2019-05-06T14:02:18.769Z,14.80
2019-05-06T14:04:52.477Z,15.00
2019-05-06T14:07:24.275Z,15.00
2019-05-06T14:09:54.012Z,14.90
2019-05-06T14:12:25.737Z,14.90
2019-05-06T14:14:57.269Z,14.80
2019-05-06T14:17:27.723Z,14.70
2019-05-06T14:19:58.786Z,14.80
2019-05-06T14:22:29.362Z,14.70
2019-05-06T14:25:23.322Z,14.50
2019-05-06T14:27:58.727Z,14.20
2019-05-06T14:30:47.456Z,14.20
2019-05-06T14:33:20.375Z,14.20
2019-05-06T14:35:52.618Z,14.00
2019-05-06T14:38:24.527Z,13.70
2019-05-06T14:41:13.139Z,13.30
2019-05-06T14:43:44.988Z,13.20
2019-05-06T14:46:15.604Z,13.40
2019-05-06T14:48:46.165Z,13.40
2019-05-06T14:51:16.797Z,13.50
2019-05-06T14:53:47.301Z,13.50
2019-05-06T14:56:38.412Z,13.70
2019-05-06T14:59:09.580Z,13.90
2019-05-06T15:01:45.131Z,14.00
2019-05-06T15:04:13.069Z,14.10
2019-05-06T15:06:43.705Z,14.20
2019-05-06T15:09:14.423Z,13.90
2019-05-06T15:11:45.148Z,14.10
2019-05-06T15:14:15.773Z,14.10
2019-05-06T15:16:46.396Z,14.00
2019-05-06T15:19:17.068Z,14.10
2019-05-06T15:21:47.896Z,14.20
2019-05-06T15:24:21.236Z,14.10
2019-05-06T15:26:52.715Z,14.20
2019-05-06T15:29:23.829Z,14.20
2019-05-06T15:32:13.888Z,14.20
2019-05-06T15:34:59.556Z,14.40
2019-05-06T15:37:36.132Z,14.40
2019-05-06T15:40:07.601Z,14.50
2019-05-06T15:42:38.211Z,14.40
2019-05-06T15:45:21.880Z,14.50
2019-05-06T15:47:52.713Z,14.60
2019-05-06T15:50:23.403Z,14.50
2019-05-06T15:52:54.124Z,14.30
2019-05-06T15:55:24.607Z,14.30
2019-05-06T15:57:56.279Z,14.50
2019-05-06T16:00:27.097Z,14.60
2019-05-06T16:02:58.419Z,14.60
2019-05-06T16:05:30.884Z,14.50
2019-05-06T16:08:02.937Z,14.40
2019-05-06T16:10:50.971Z,14.20
2019-05-06T16:13:05.935Z,14.30
2019-05-06T16:15:37.773Z,14.20
2019-05-06T16:18:09.181Z,14.10
2019-05-06T16:20:39.742Z,14.10
2019-05-06T16:23:20.127Z,14.00
2019-05-06T16:25:52.403Z,14.10
2019-05-06T16:28:23.280Z,14.00
2019-05-06T16:30:53.905Z,13.90
2019-05-06T16:33:25.483Z,14.00
2019-05-06T16:35:56.047Z,14.00
2019-05-06T16:38:26.536Z,13.90
2019-05-06T16:41:09.397Z,13.80
2019-05-06T16:43:29.268Z,13.80
2019-05-06T16:45:59.891Z,13.70
2019-05-06T16:48:30.524Z,13.80
2019-05-06T16:51:04.520Z,13.80
2019-05-06T16:53:35.166Z,13.80
2019-05-06T16:56:22.133Z,13.70
2019-05-06T16:58:55.338Z,13.60
2019-05-06T17:01:25.820Z,13.60
2019-05-06T17:04:03.235Z,13.60
2019-05-06T17:06:36.159Z,13.40
2019-05-06T17:09:18.422Z,13.40
2019-05-06T17:11:42.659Z,13.50
2019-05-06T17:14:13.358Z,13.30
2019-05-06T17:16:44.816Z,13.40
2019-05-06T17:19:15.237Z,13.30
2019-05-06T17:21:48.292Z,13.40
2019-05-06T17:24:18.148Z,13.10
2019-05-06T17:26:48.596Z,12.80
2019-05-06T17:29:36.916Z,12.90
2019-05-06T17:32:26.583Z,12.80
2019-05-06T17:34:57.901Z,12.90
2019-05-06T17:37:48.477Z,12.90
2019-05-06T17:40:23.001Z,12.80
2019-05-06T17:42:54.859Z,12.70
2019-05-06T17:45:59.323Z,12.70
2019-05-06T17:48:39.021Z,12.80
2019-05-06T17:51:13.464Z,12.80
2019-05-06T17:53:46.244Z,12.70
2019-05-06T17:56:16.871Z,12.60
2019-05-06T17:58:47.424Z,12.40
2019-05-06T18:01:23.254Z,12.20
2019-05-06T18:03:54.007Z,12.40
2019-05-06T18:06:24.735Z,12.40
2019-05-06T18:08:55.415Z,12.50
2019-05-06T18:11:27.793Z,12.60
2019-05-06T18:13:59.144Z,12.60
2019-05-06T18:16:32.970Z,12.60
2019-05-06T18:19:05.888Z,12.50
2019-05-06T18:21:40.536Z,12.50
2019-05-06T18:24:18.693Z,12.50
2019-05-06T18:26:54.456Z,12.30
2019-05-06T18:29:27.035Z,12.20
2019-05-06T18:31:59.129Z,12.10
2019-05-06T18:34:32.942Z,12.10
2019-05-06T18:37:04.919Z,12.10
2019-05-06T18:39:42.330Z,12.00
2019-05-06T18:42:20.136Z,11.90
2019-05-06T18:44:49.687Z,12.00
2019-05-06T18:47:22.188Z,11.80
2019-05-06T18:49:53.963Z,11.80
2019-05-06T18:52:25.470Z,11.80
2019-05-06T18:54:57.025Z,11.90
2019-05-06T18:57:32.834Z,11.80
2019-05-06T19:00:07.038Z,11.70
2019-05-06T19:02:42.371Z,11.70
2019-05-06T19:05:24.933Z,11.70
2019-05-06T19:07:56.026Z,11.70
2019-05-06T19:10:29.465Z,11.60
2019-05-06T19:13:03.095Z,11.50
2019-05-06T19:15:34.412Z,11.40
2019-05-06T19:18:06.050Z,11.30
2019-05-06T19:20:37.329Z,11.40
2019-05-06T19:23:13.031Z,11.40
2019-05-06T19:25:46.653Z,11.30
2019-05-06T19:28:22.002Z,11.30
2019-05-06T19:30:54.185Z,11.30
2019-05-06T19:33:24.907Z,11.20
2019-05-06T19:35:58.180Z,11.20
2019-05-06T19:38:36.948Z,11.20
2019-05-06T19:41:08.979Z,11.20
2019-05-06T19:43:40.240Z,11.20
2019-05-06T19:46:12.219Z,11.20
2019-05-06T19:48:43.929Z,11.10
2019-05-06T19:51:16.316Z,11.10
2019-05-06T19:53:46.851Z,11.10
2019-05-06T19:56:23.323Z,11.10
2019-05-06T19:58:58.008Z,11.00
2019-05-06T20:01:32.202Z,11.10
2019-05-06T20:04:05.797Z,11.00
2019-05-06T20:06:48.253Z,11.00
2019-05-06T20:09:46.297Z,11.00
2019-05-06T20:12:35.616Z,11.00
2019-05-06T20:15:34.214Z,10.90
2019-05-06T20:18:09.208Z,10.90
2019-05-06T20:20:45.220Z,10.90
2019-05-06T20:23:16.719Z,10.90
2019-05-06T20:25:51.961Z,10.80
2019-05-06T20:28:24.424Z,10.80
2019-05-06T20:30:56.364Z,10.70
2019-05-06T20:33:27.220Z,10.70
2019-05-06T20:36:06.079Z,10.70
2019-05-06T20:38:42.294Z,10.70
2019-05-06T20:41:13.139Z,10.70
2019-05-06T20:43:47.568Z,10.60
2019-05-06T20:46:22.492Z,10.60
2019-05-06T20:48:53.916Z,10.60
2019-05-06T20:51:25.704Z,10.50
2019-05-06T20:53:58.636Z,10.50
2019-05-06T20:56:32.757Z,10.50
2019-05-06T20:59:18.575Z,10.50
2019-05-06T21:01:55.620Z,10.50
2019-05-06T21:04:32.532Z,10.50
2019-05-06T21:07:05.686Z,10.40
2019-05-06T21:09:36.244Z,10.40
2019-05-06T21:12:06.873Z,10.40
2019-05-06T21:14:41.952Z,10.40
2019-05-06T21:17:12.543Z,10.40
2019-05-06T21:19:45.353Z,10.40
2019-05-06T21:22:17.197Z,10.30
2019-05-06T21:24:51.801Z,10.30
2019-05-06T21:27:24.427Z,10.30
2019-05-06T21:29:57.854Z,10.30
2019-05-06T21:32:29.167Z,10.30
2019-05-06T21:35:03.359Z,10.30
2019-05-06T21:37:36.293Z,10.30
2019-05-06T21:40:09.273Z,10.20
2019-05-06T21:42:43.143Z,10.20
2019-05-06T21:45:16.032Z,10.30
2019-05-06T21:47:46.640Z,10.20
2019-05-06T21:50:17.997Z,10.30
2019-05-06T21:52:50.509Z,10.20
2019-05-06T21:55:22.808Z,10.20
2019-05-06T21:57:57.220Z,10.20
2019-05-06T22:00:52.675Z,10.20
2019-05-06T22:03:36.667Z,10.20
2019-05-06T22:06:09.707Z,10.20
2019-05-06T22:08:42.484Z,10.10
2019-05-06T22:11:16.708Z,10.10
2019-05-06T22:14:01.669Z,10.20
2019-05-06T22:16:32.333Z,10.10
2019-05-06T22:19:08.722Z,10.00
2019-05-06T22:21:58.273Z,10.10
2019-05-06T22:24:42.700Z,10.10
2019-05-06T22:27:22.231Z,10.00
2019-05-06T22:29:55.263Z,10.00
2019-05-06T22:32:33.049Z,10.00
2019-05-06T22:35:05.391Z,10.00
2019-05-06T22:37:39.849Z,10.00
2019-05-06T22:40:15.643Z,10.00
2019-05-06T22:42:48.979Z,9.90
2019-05-06T22:45:22.261Z,9.90
2019-05-06T22:47:56.102Z,10.00
2019-05-06T22:50:28.452Z,9.80
2019-05-06T22:52:59.428Z,9.80
2019-05-06T22:55:32.925Z,9.70
2019-05-06T22:58:06.143Z,9.70
2019-05-06T23:00:53.552Z,9.60
2019-05-06T23:03:25.985Z,9.60
2019-05-06T23:05:58.160Z,9.60
2019-05-06T23:08:29.520Z,9.60
2019-05-06T23:11:04.080Z,9.60
2019-05-06T23:13:35.075Z,9.50
2019-05-06T23:16:08.712Z,9.50
2019-05-06T23:18:52.438Z,9.50
2019-05-06T23:21:24.244Z,9.40
2019-05-06T23:24:02.009Z,9.30
2019-05-06T23:26:34.302Z,9.20
2019-05-06T23:29:07.308Z,9.10
2019-05-06T23:31:42.424Z,9.00
2019-05-06T23:34:15.283Z,8.90
2019-05-06T23:37:24.403Z,8.80
2019-05-06T23:40:43.041Z,8.70
2019-05-06T23:43:51.402Z,8.70
2019-05-06T23:46:59.568Z,8.60
2019-05-06T23:50:12.458Z,8.50
2019-05-06T23:53:22.937Z,8.40
2019-05-06T23:56:32.660Z,8.40
2019-05-06T23:59:07.636Z,8.30
